Time;durP1;ratioP1;P1;durP2;ratioP2;P2;SDS_P1;SDS_P2;PMS_P1;PMS_P2;Temp;Humidity;BMP_temperature;BMP_pressure;BME280_temperature;BME280_humidity;BME280_pressure;Samples;Min_cycle;Max_cycle;Signal;HPM_P1;HPM_P2
2024/04/01 00:01:42;;;;;;;6.07;3.30;;;;;;;;;;6214539;23;20277;-51
2024/04/01 00:04:09;;;;;;;8.55;4.13;;;;;;;;;;6214261;23;20208;-50
2024/04/01 00:06:36;;;;;;;5.72;3.17;;;;;;;;;;6215351;23;20174;-49
2024/04/01 00:09:03;;;;;;;7.47;3.78;;;;;;;;;;6214382;23;20205;-49
2024/04/01 00:11:30;;;;;;;8.52;3.83;;;;;;;;;;6214737;23;20272;-50
2024/04/01 00:13:57;;;;;;;6.82;3.38;;;;;;;;;;6214226;23;20248;-48
2024/04/01 00:16:23;;;;;;;8.38;3.72;;;;;;;;;;6214453;23;20174;-49
2024/04/01 00:18:52;;;;;;;8.60;4.57;;;;;;;;;;6214550;23;20249;-51
2024/04/01 00:21:19;;;;;;;10.32;4.40;;;;;;;;;;6214225;23;20193;-49
2024/04/01 00:23:49;;;;;;;9.13;4.03;;;;;;;;;;6214448;23;20585;-49
2024/04/01 00:26:16;;;;;;;10.70;4.75;;;;;;;;;;6214889;23;20216;-49
2024/04/01 00:28:43;;;;;;;7.20;3.53;;;;;;;;;;6214543;23;20184;-49
2024/04/01 00:31:10;;;;;;;4.85;3.05;;;;;;;;;;6214571;23;20275;-49
2024/04/01 00:33:37;;;;;;;9.13;5.22;;;;;;;;;;6214990;23;20198;-50
2024/04/01 00:36:06;;;;;;;7.53;3.92;;;;;;;;;;6215147;23;20217;-49
2024/04/01 00:38:34;;;;;;;5.30;3.78;;;;;;;;;;6214288;23;20567;-51
2024/04/01 00:41:00;;;;;;;10.23;4.55;;;;;;;;;;6215260;23;20268;-51
2024/04/01 00:43:27;;;;;;;14.60;4.32;;;;;;;;;;6214263;23;20529;-51
2024/04/01 00:45:54;;;;;;;10.48;4.63;;;;;;;;;;6214795;23;20174;-51
2024/04/01 00:48:22;;;;;;;12.25;3.92;;;;;;;;;;6214461;23;20174;-52
2024/04/01 00:50:50;;;;;;;6.75;4.20;;;;;;;;;;6214116;23;20204;-49
2024/04/01 00:53:20;;;;;;;15.45;6.15;;;;;;;;;;6214660;23;20208;-51
2024/04/01 00:55:48;;;;;;;10.52;4.00;;;;;;;;;;6214802;23;20199;-51
2024/04/01 00:58:16;;;;;;;10.95;5.18;;;;;;;;;;6214178;23;20178;-54
2024/04/01 01:00:43;;;;;;;12.13;6.00;;;;;;;;;;6214602;23;20232;-51
2024/04/01 01:03:11;;;;;;;26.33;5.90;;;;;;;;;;6214115;23;20244;-50
2024/04/01 01:05:37;;;;;;;15.13;5.13;;;;;;;;;;6214733;23;20496;-51
2024/04/01 01:08:06;;;;;;;9.23;5.03;;;;;;;;;;6214920;23;20569;-49
2024/04/01 01:10:34;;;;;;;10.45;5.03;;;;;;;;;;6214423;23;20194;-49
2024/04/01 01:13:02;;;;;;;19.40;5.15;;;;;;;;;;6214171;23;20181;-50
2024/04/01 01:15:28;;;;;;;12.07;4.68;;;;;;;;;;6214286;23;20623;-49
2024/04/01 01:17:56;;;;;;;8.65;5.47;;;;;;;;;;6214540;23;20177;-49
2024/04/01 01:20:23;;;;;;;7.43;5.07;;;;;;;;;;6214205;23;20174;-50
2024/04/01 01:22:52;;;;;;;12.88;5.60;;;;;;;;;;6214310;23;20256;-48
2024/04/01 01:25:18;;;;;;;7.50;3.92;;;;;;;;;;6214044;23;20174;-49
2024/04/01 01:27:46;;;;;;;8.45;5.13;;;;;;;;;;6213574;23;20188;-49
2024/04/01 01:30:15;;;;;;;11.25;4.53;;;;;;;;;;6214410;23;20630;-53
2024/04/01 01:32:48;;;;;;;13.07;6.15;;;;;;;;;;6214255;23;20256;-49
2024/04/01 01:35:16;;;;;;;10.52;4.68;;;;;;;;;;6214646;23;20158;-54
2024/04/01 01:37:43;;;;;;;14.27;5.95;;;;;;;;;;6214161;23;20590;-51
2024/04/01 01:40:11;;;;;;;7.65;4.47;;;;;;;;;;6213651;23;20174;-49
2024/04/01 01:42:39;;;;;;;11.75;5.00;;;;;;;;;;6213661;23;20184;-54
2024/04/01 01:45:07;;;;;;;12.93;4.95;;;;;;;;;;6214277;23;20225;-52
2024/04/01 01:47:35;;;;;;;9.60;5.30;;;;;;;;;;6213892;23;20181;-50
2024/04/01 01:50:04;;;;;;;14.82;6.25;;;;;;;;;;6213781;23;20257;-49
2024/04/01 01:52:32;;;;;;;14.35;6.25;;;;;;;;;;6213708;23;20200;-49
2024/04/01 01:54:59;;;;;;;11.02;5.35;;;;;;;;;;6213493;23;20249;-50
2024/04/01 01:57:28;;;;;;;11.50;6.03;;;;;;;;;;6213804;23;20174;-53
2024/04/01 01:59:55;;;;;;;20.25;7.07;;;;;;;;;;6213552;23;20513;-50
2024/04/01 02:02:23;;;;;;;22.13;7.78;;;;;;;;;;6213384;23;20281;-49
2024/04/01 02:04:49;;;;;;;15.65;6.55;;;;;;;;;;6214023;23;20680;-50
2024/04/01 02:07:17;;;;;;;11.18;5.18;;;;;;;;;;6213771;23;20257;-53
2024/04/01 02:09:43;;;;;;;8.55;4.80;;;;;;;;;;6213456;23;20195;-53
2024/04/01 02:12:11;;;;;;;7.45;4.88;;;;;;;;;;6212642;23;20194;-52
2024/04/01 02:14:39;;;;;;;4.03;3.55;;;;;;;;;;6213186;23;20178;-52
2024/04/01 02:17:08;;;;;;;3.50;3.03;;;;;;;;;;6213625;23;20522;-51
2024/04/01 02:19:35;;;;;;;6.57;4.07;;;;;;;;;;6213242;23;20240;-50
2024/04/01 02:22:12;;;;;;;10.45;5.00;;;;;;;;;;6213085;23;20193;-52
2024/04/01 02:24:38;;;;;;;21.63;7.45;;;;;;;;;;6213605;23;20188;-50
2024/04/01 02:27:06;;;;;;;14.38;6.18;;;;;;;;;;6213410;23;20256;-51
2024/04/01 02:29:33;;;;;;;15.45;6.60;;;;;;;;;;6213704;23;20180;-53
2024/04/01 02:32:01;;;;;;;15.50;7.57;;;;;;;;;;6213203;23;20587;-52
2024/04/01 02:34:28;;;;;;;13.57;6.20;;;;;;;;;;6213038;23;20170;-54
2024/04/01 02:36:56;;;;;;;16.73;7.07;;;;;;;;;;6213453;23;20180;-51
2024/04/01 02:39:23;;;;;;;9.30;5.03;;;;;;;;;;6213416;23;20622;-50
2024/04/01 02:41:52;;;;;;;14.48;5.18;;;;;;;;;;6212983;23;20566;-50
2024/04/01 02:44:18;;;;;;;11.07;4.18;;;;;;;;;;6213353;23;20736;-51
2024/04/01 02:46:46;;;;;;;7.45;3.90;;;;;;;;;;6213074;23;20201;-51
2024/04/01 02:49:14;;;;;;;3.83;2.78;;;;;;;;;;6213175;23;20174;-53
2024/04/01 02:51:42;;;;;;;3.95;2.83;;;;;;;;;;6212833;23;20280;-54
2024/04/01 02:54:09;;;;;;;5.53;3.92;;;;;;;;;;6212896;23;20192;-52
2024/04/01 02:56:37;;;;;;;6.13;3.58;;;;;;;;;;6213303;23;20492;-52
2024/04/01 02:59:04;;;;;;;8.20;4.38;;;;;;;;;;6212655;23;20180;-53
2024/04/01 03:01:32;;;;;;;11.55;4.82;;;;;;;;;;6212450;23;20198;-54
2024/04/01 03:04:01;;;;;;;13.27;4.13;;;;;;;;;;6212931;23;20674;-52
2024/04/01 03:06:31;;;;;;;8.93;4.10;;;;;;;;;;6213031;23;20647;-51
2024/04/01 03:08:57;;;;;;;15.20;4.95;;;;;;;;;;6213791;23;20170;-54
2024/04/01 03:11:25;;;;;;;10.63;4.88;;;;;;;;;;6215658;23;20193;-52
2024/04/01 03:13:52;;;;;;;11.10;4.55;;;;;;;;;;6216162;23;20513;-52
2024/04/01 03:16:21;;;;;;;11.43;4.20;;;;;;;;;;6216483;23;20174;-52
2024/04/01 03:18:47;;;;;;;15.18;6.03;;;;;;;;;;6216187;23;20228;-52
2024/04/01 03:21:15;;;;;;;17.05;6.47;;;;;;;;;;6216015;23;20215;-51
2024/04/01 03:23:43;;;;;;;9.32;5.90;;;;;;;;;;6214729;23;20174;-52
2024/04/01 03:26:11;;;;;;;14.07;5.45;;;;;;;;;;6214896;23;20261;-54
2024/04/01 03:28:37;;;;;;;11.68;5.72;;;;;;;;;;6215705;23;20174;-52
2024/04/01 03:31:06;;;;;;;10.65;5.20;;;;;;;;;;6215607;23;20193;-53
2024/04/01 03:33:33;;;;;;;11.00;6.05;;;;;;;;;;6216077;23;20180;-51
2024/04/01 03:36:00;;;;;;;9.23;5.05;;;;;;;;;;6216033;23;20493;-52
2024/04/01 03:38:28;;;;;;;7.32;3.90;;;;;;;;;;6216665;23;20286;-54
2024/04/01 03:40:57;;;;;;;5.88;4.15;;;;;;;;;;6216009;23;20198;-50
2024/04/01 03:43:23;;;;;;;6.15;4.00;;;;;;;;;;6215639;23;20515;-52
2024/04/01 03:45:59;;;;;;;8.15;4.18;;;;;;;;;;6215813;23;20616;-52
2024/04/01 03:48:25;;;;;;;8.60;4.88;;;;;;;;;;6215908;23;20177;-55
2024/04/01 03:50:53;;;;;;;8.65;5.93;;;;;;;;;;6215787;23;20201;-53
2024/04/01 03:53:20;;;;;;;9.60;5.05;;;;;;;;;;6216014;23;20174;-52
2024/04/01 03:55:48;;;;;;;11.07;4.72;;;;;;;;;;6216013;23;20176;-54
2024/04/01 03:58:15;;;;;;;11.48;5.45;;;;;;;;;;6216525;23;20626;-53
2024/04/01 04:00:44;;;;;;;6.18;4.07;;;;;;;;;;6215899;23;20198;-52
2024/04/01 04:03:11;;;;;;;9.75;4.78;;;;;;;;;;6215038;23;20227;-50
2024/04/01 04:05:38;;;;;;;4.97;4.55;;;;;;;;;;6215940;23;20275;-53
2024/04/01 04:08:06;;;;;;;4.43;3.25;;;;;;;;;;6215739;23;20173;-50
2024/04/01 04:10:34;;;;;;;3.53;3.00;;;;;;;;;;6215688;23;20232;-50
2024/04/01 04:13:00;;;;;;;2.83;2.30;;;;;;;;;;6215751;23;20189;-54
2024/04/01 04:15:29;;;;;;;5.97;3.47;;;;;;;;;;6215685;23;20663;-53
2024/04/01 04:17:56;;;;;;;5.57;3.25;;;;;;;;;;6215819;23;20174;-56
2024/04/01 04:20:24;;;;;;;3.40;2.70;;;;;;;;;;6215681;23;20184;-54
2024/04/01 04:22:50;;;;;;;6.60;2.88;;;;;;;;;;6214750;23;20174;-54
2024/04/01 04:25:18;;;;;;;5.30;2.70;;;;;;;;;;6214411;23;20197;-53
2024/04/01 04:27:44;;;;;;;6.80;3.28;;;;;;;;;;6214011;23;20204;-51
2024/04/01 04:30:13;;;;;;;5.35;2.83;;;;;;;;;;6213760;23;20173;-52
2024/04/01 04:32:41;;;;;;;8.02;3.83;;;;;;;;;;6214638;23;20173;-51
2024/04/01 04:35:09;;;;;;;8.88;5.10;;;;;;;;;;6214151;23;20204;-53
2024/04/01 04:37:37;;;;;;;8.90;4.28;;;;;;;;;;6214483;23;20633;-52
2024/04/01 04:40:05;;;;;;;5.18;4.13;;;;;;;;;;6214226;23;20178;-53
2024/04/01 04:42:32;;;;;;;10.85;4.63;;;;;;;;;;6214130;23;20194;-53
2024/04/01 04:45:00;;;;;;;8.50;4.78;;;;;;;;;;6214074;23;20193;-52
2024/04/01 04:47:26;;;;;;;9.98;5.70;;;;;;;;;;6213923;23;20653;-52
2024/04/01 04:49:55;;;;;;;12.30;4.65;;;;;;;;;;6213411;23;20184;-51
2024/04/01 04:52:21;;;;;;;12.27;5.97;;;;;;;;;;6213576;23;20672;-52
2024/04/01 04:54:49;;;;;;;6.50;3.75;;;;;;;;;;6214372;23;20262;-54
2024/04/01 04:57:15;;;;;;;6.75;4.97;;;;;;;;;;6213978;23;20180;-55
2024/04/01 04:59:43;;;;;;;13.35;6.63;;;;;;;;;;6214155;23;20773;-51
2024/04/01 05:02:09;;;;;;;6.85;4.78;;;;;;;;;;6213675;23;20281;-52
2024/04/01 05:04:37;;;;;;;17.67;6.35;;;;;;;;;;6213602;23;20649;-51
2024/04/01 05:07:06;;;;;;;13.32;6.00;;;;;;;;;;6213996;23;20177;-54
2024/04/01 05:09:34;;;;;;;6.78;4.40;;;;;;;;;;6214211;23;20188;-51
2024/04/01 05:12:03;;;;;;;17.75;8.70;;;;;;;;;;6214130;23;20193;-55
2024/04/01 05:14:30;;;;;;;13.02;6.72;;;;;;;;;;6213710;23;20190;-52
2024/04/01 05:16:57;;;;;;;8.48;6.07;;;;;;;;;;6214363;23;20220;-54
2024/04/01 05:19:24;;;;;;;13.60;7.82;;;;;;;;;;6213688;23;20717;-51
2024/04/01 05:21:51;;;;;;;9.68;5.65;;;;;;;;;;6213380;23;20194;-51
2024/04/01 05:24:19;;;;;;;11.77;6.22;;;;;;;;;;6213394;23;20205;-55
2024/04/01 05:26:46;;;;;;;14.93;7.78;;;;;;;;;;6214058;23;20201;-55
2024/04/01 05:29:13;;;;;;;15.07;6.22;;;;;;;;;;6213705;23;20174;-53
2024/04/01 05:31:40;;;;;;;14.23;7.28;;;;;;;;;;6213663;23;20194;-52
2024/04/01 05:34:10;;;;;;;7.22;5.40;;;;;;;;;;6213412;23;20189;-52
2024/04/01 05:36:37;;;;;;;17.85;5.65;;;;;;;;;;6214170;23;20655;-54
2024/04/01 05:39:05;;;;;;;16.30;7.53;;;;;;;;;;6213661;23;20767;-53
2024/04/01 05:41:33;;;;;;;8.90;5.40;;;;;;;;;;6214116;23;20255;-51
2024/04/01 05:44:01;;;;;;;6.85;5.45;;;;;;;;;;6212934;23;20639;-53
2024/04/01 05:46:27;;;;;;;9.18;6.07;;;;;;;;;;6213532;23;20197;-51
2024/04/01 05:48:55;;;;;;;5.45;4.38;;;;;;;;;;6213482;23;20759;-52
2024/04/01 05:51:21;;;;;;;10.75;6.38;;;;;;;;;;6213500;23;20273;-53
2024/04/01 05:53:50;;;;;;;15.70;5.50;;;;;;;;;;6213046;23;20174;-53
2024/04/01 05:56:17;;;;;;;8.35;4.72;;;;;;;;;;6213731;23;20180;-52
2024/04/01 05:58:45;;;;;;;5.63;4.13;;;;;;;;;;6212900;23;20253;-52
2024/04/01 06:01:12;;;;;;;3.70;3.40;;;;;;;;;;6213512;23;20535;-52
2024/04/01 06:03:39;;;;;;;3.65;3.28;;;;;;;;;;6213303;23;20178;-53
2024/04/01 06:06:06;;;;;;;4.35;3.13;;;;;;;;;;6213205;23;20197;-51
2024/04/01 06:08:33;;;;;;;3.83;3.28;;;;;;;;;;6213381;23;20565;-51
2024/04/01 06:11:01;;;;;;;12.23;4.47;;;;;;;;;;6213433;23;20272;-54
2024/04/01 06:13:28;;;;;;;11.10;5.13;;;;;;;;;;6212723;23;20181;-54
2024/04/01 06:15:56;;;;;;;9.63;5.70;;;;;;;;;;6213529;23;20181;-54
2024/04/01 06:18:24;;;;;;;7.18;4.43;;;;;;;;;;6213547;23;20514;-56
2024/04/01 06:20:50;;;;;;;5.20;4.07;;;;;;;;;;6213544;23;20251;-52
2024/04/01 06:23:17;;;;;;;4.00;3.65;;;;;;;;;;6212421;23;20188;-57
2024/04/01 06:25:46;;;;;;;3.08;2.85;;;;;;;;;;6213444;23;20209;-53
2024/04/01 06:28:14;;;;;;;12.85;6.25;;;;;;;;;;6213790;23;20174;-55
2024/04/01 06:30:40;;;;;;;9.55;6.13;;;;;;;;;;6213215;23;20666;-54
2024/04/01 06:33:09;;;;;;;9.55;5.53;;;;;;;;;;6212500;23;20619;-53
2024/04/01 06:35:36;;;;;;;17.70;6.78;;;;;;;;;;6213196;23;20180;-54
2024/04/01 06:38:04;;;;;;;12.63;6.05;;;;;;;;;;6212538;23;20174;-53
2024/04/01 06:40:34;;;;;;;9.30;5.32;;;;;;;;;;6213322;23;20256;-54
2024/04/01 06:43:02;;;;;;;8.00;4.90;;;;;;;;;;6212887;23;20252;-52
2024/04/01 06:45:28;;;;;;;12.70;5.85;;;;;;;;;;6212631;23;20256;-52
2024/04/01 06:47:56;;;;;;;15.20;6.10;;;;;;;;;;6213084;23;20558;-53
2024/04/01 06:50:24;;;;;;;9.70;4.30;;;;;;;;;;6213120;23;20559;-51
2024/04/01 06:52:51;;;;;;;15.57;5.97;;;;;;;;;;6212670;23;20532;-53
2024/04/01 06:55:18;;;;;;;8.57;4.90;;;;;;;;;;6212824;23;20268;-55
2024/04/01 06:57:45;;;;;;;6.72;4.35;;;;;;;;;;6212823;23;20248;-56
2024/04/01 07:00:15;;;;;;;11.02;5.38;;;;;;;;;;6213193;23;20178;-50
2024/04/01 07:02:42;;;;;;;7.65;4.07;;;;;;;;;;6213287;23;20257;-55
2024/04/01 07:05:08;;;;;;;10.48;4.97;;;;;;;;;;6213338;23;20508;-52
2024/04/01 07:07:37;;;;;;;9.63;5.45;;;;;;;;;;6213332;23;20677;-52
2024/04/01 07:10:04;;;;;;;8.65;3.88;;;;;;;;;;6213213;23;20541;-53
2024/04/01 07:12:32;;;;;;;8.07;4.10;;;;;;;;;;6212210;23;20202;-53
2024/04/01 07:14:59;;;;;;;7.00;3.80;;;;;;;;;;6212857;23;20231;-51
2024/04/01 07:17:26;;;;;;;8.35;4.00;;;;;;;;;;6213147;23;20174;-55
2024/04/01 07:19:52;;;;;;;8.20;4.20;;;;;;;;;;6212529;23;20184;-53
2024/04/01 07:22:20;;;;;;;7.28;4.32;;;;;;;;;;6212104;23;20200;-53
2024/04/01 07:24:48;;;;;;;9.80;4.28;;;;;;;;;;6212616;23;20182;-53
2024/04/01 07:27:15;;;;;;;11.88;4.13;;;;;;;;;;6212211;23;20213;-54
2024/04/01 07:29:42;;;;;;;7.82;4.97;;;;;;;;;;6212927;23;20513;-51
2024/04/01 07:32:09;;;;;;;13.07;4.60;;;;;;;;;;6212378;23;20678;-52
2024/04/01 07:34:36;;;;;;;9.57;5.00;;;;;;;;;;6211927;23;20177;-54
2024/04/01 07:37:03;;;;;;;6.93;4.57;;;;;;;;;;6212542;23;20174;-53
2024/04/01 07:39:30;;;;;;;9.50;4.97;;;;;;;;;;6212506;23;20334;-49
2024/04/01 07:41:59;;;;;;;7.13;4.88;;;;;;;;;;6212457;23;20539;-50
2024/04/01 07:44:25;;;;;;;8.35;4.47;;;;;;;;;;6212935;23;20173;-50
2024/04/01 07:46:58;;;;;;;8.57;6.53;;;;;;;;;;6212212;23;20281;-53
2024/04/01 07:49:29;;;;;;;9.45;5.13;;;;;;;;;;6212144;23;20257;-55
2024/04/01 07:51:56;;;;;;;10.40;4.97;;;;;;;;;;6212777;23;20683;-55
2024/04/01 07:54:24;;;;;;;13.10;5.88;;;;;;;;;;6212395;23;20174;-51
2024/04/01 07:56:51;;;;;;;11.70;6.00;;;;;;;;;;6211307;23;20180;-55
2024/04/01 07:59:19;;;;;;;10.30;6.38;;;;;;;;;;6214029;23;20281;-53
2024/04/01 08:01:46;;;;;;;11.55;6.20;;;;;;;;;;6213825;23;20194;-53
2024/04/01 08:04:16;;;;;;;9.90;6.38;;;;;;;;;;6214072;23;20189;-52
2024/04/01 08:06:44;;;;;;;9.95;5.70;;;;;;;;;;6214991;23;20201;-53
2024/04/01 08:09:11;;;;;;;6.28;4.90;;;;;;;;;;6214673;23;20176;-55
2024/04/01 08:11:39;;;;;;;7.53;5.85;;;;;;;;;;6214026;23;20284;-55
2024/04/01 08:14:05;;;;;;;14.75;6.63;;;;;;;;;;6213839;23;20188;-54
2024/04/01 08:16:34;;;;;;;10.75;5.18;;;;;;;;;;6213855;23;20180;-53
2024/04/01 08:19:01;;;;;;;11.50;5.32;;;;;;;;;;6214699;23;20217;-54
2024/04/01 08:21:28;;;;;;;7.53;4.80;;;;;;;;;;6214542;23;20200;-54
2024/04/01 08:23:54;;;;;;;9.15;5.20;;;;;;;;;;6214148;23;20173;-51
2024/04/01 08:26:22;;;;;;;9.38;6.82;;;;;;;;;;6214749;23;20590;-55
2024/04/01 08:28:51;;;;;;;6.75;4.85;;;;;;;;;;6214596;23;20261;-52
2024/04/01 08:31:19;;;;;;;7.57;5.35;;;;;;;;;;6214131;23;20252;-55
2024/04/01 08:33:47;;;;;;;6.00;3.78;;;;;;;;;;6214338;23;20173;-54
2024/04/01 08:36:16;;;;;;;4.28;3.63;;;;;;;;;;6213943;23;20174;-55
2024/04/01 08:38:43;;;;;;;5.90;2.88;;;;;;;;;;6214672;23;20174;-52
2024/04/01 08:41:15;;;;;;;7.05;3.15;;;;;;;;;;6214340;23;20202;-52
2024/04/01 08:43:50;;;;;;;5.28;2.65;;;;;;;;;;6214661;23;20158;-54
2024/04/01 08:46:19;;;;;;;3.35;2.92;;;;;;;;;;6214803;23;20164;-53
2024/04/01 08:48:50;;;;;;;5.53;2.72;;;;;;;;;;6214614;23;20196;-53
2024/04/01 08:51:21;;;;;;;4.60;2.80;;;;;;;;;;6213563;23;20200;-53
2024/04/01 08:53:54;;;;;;;4.28;2.50;;;;;;;;;;6214272;23;20174;-56
2024/04/01 08:56:22;;;;;;;7.13;3.08;;;;;;;;;;6214161;23;20177;-51
2024/04/01 08:58:48;;;;;;;2.97;2.50;;;;;;;;;;6214033;23;20262;-52
2024/04/01 09:01:16;;;;;;;3.83;2.60;;;;;;;;;;6214059;23;20194;-56
2024/04/01 09:03:43;;;;;;;4.60;2.60;;;;;;;;;;6213639;23;20232;-56
2024/04/01 09:06:12;;;;;;;9.88;2.47;;;;;;;;;;6213865;23;20178;-52
2024/04/01 09:08:39;;;;;;;3.45;2.53;;;;;;;;;;6213517;23;20211;-52
2024/04/01 09:11:07;;;;;;;3.13;2.83;;;;;;;;;;6213805;23;20200;-54
2024/04/01 09:13:33;;;;;;;2.20;2.00;;;;;;;;;;6214000;23;20192;-52
2024/04/01 09:16:02;;;;;;;2.35;2.15;;;;;;;;;;6213201;23;20192;-53
2024/04/01 09:18:29;;;;;;;2.40;2.20;;;;;;;;;;6213857;23;20192;-52
2024/04/01 09:20:59;;;;;;;2.70;1.90;;;;;;;;;;6214147;23;20194;-52
2024/04/01 09:23:27;;;;;;;2.45;2.20;;;;;;;;;;6213970;23;20514;-53
2024/04/01 09:25:54;;;;;;;3.85;2.85;;;;;;;;;;6213890;23;20174;-51
2024/04/01 09:28:21;;;;;;;3.65;2.50;;;;;;;;;;6213648;23;20658;-52
2024/04/01 09:30:48;;;;;;;4.90;2.50;;;;;;;;;;6214229;23;20221;-53
2024/04/01 09:33:15;;;;;;;3.67;2.28;;;;;;;;;;6213760;23;20237;-53
2024/04/01 09:35:43;;;;;;;3.88;2.72;;;;;;;;;;6213829;23;20174;-53
2024/04/01 09:38:09;;;;;;;5.40;3.00;;;;;;;;;;6213960;23;20177;-51
2024/04/01 09:40:38;;;;;;;5.68;2.88;;;;;;;;;;6214229;23;20189;-54
2024/04/01 09:43:06;;;;;;;4.70;2.55;;;;;;;;;;6213271;23;20523;-53
2024/04/01 09:45:37;;;;;;;3.38;2.35;;;;;;;;;;6213397;23;20642;-56
2024/04/01 09:48:06;;;;;;;6.05;2.90;;;;;;;;;;6213920;23;20285;-54
2024/04/01 09:50:35;;;;;;;4.28;2.53;;;;;;;;;;6213059;23;20194;-52
2024/04/01 09:53:02;;;;;;;3.60;2.80;;;;;;;;;;6213969;23;20254;-56
2024/04/01 09:55:34;;;;;;;7.03;3.22;;;;;;;;;;6213578;23;20665;-53
2024/04/01 09:58:35;;;;;;;6.00;3.10;;;;;;;;;;6213807;23;20165;-51
2024/04/01 10:01:20;;;;;;;2.70;2.50;;;;;;;;;;6214003;23;20194;-54
2024/04/01 10:04:45;;;;;;;3.25;2.47;;;;;;;;;;6213671;23;20490;-53
2024/04/01 10:08:05;;;;;;;2.92;2.17;;;;;;;;;;6151011;23;20183;-52
2024/04/01 10:11:19;;;;;;;2.50;1.85;;;;;;;;;;6209436;23;20198;-55
2024/04/01 10:14:30;;;;;;;2.13;1.92;;;;;;;;;;6176445;23;20188;-56
2024/04/01 10:17:14;;;;;;;2.33;1.88;;;;;;;;;;6213952;23;20513;-53
2024/04/01 10:20:08;;;;;;;4.00;2.60;;;;;;;;;;6212744;23;20169;-52
2024/04/01 10:23:24;;;;;;;3.50;1.75;;;;;;;;;;6213200;23;20158;-52
2024/04/01 10:26:41;;;;;;;1.40;1.30;;;;;;;;;;6202023;23;20173;-56
2024/04/01 10:29:56;;;;;;;2.60;2.10;;;;;;;;;;6213658;23;20204;-56
2024/04/01 10:33:28;;;;;;;2.08;1.63;;;;;;;;;;6207392;23;20288;-54
2024/04/01 10:36:10;;;;;;;2.40;2.00;;;;;;;;;;6201465;23;20188;-52
2024/04/01 10:39:24;;;;;;;1.50;1.40;;;;;;;;;;6213405;23;20252;-52
2024/04/01 10:42:44;;;;;;;1.90;1.80;;;;;;;;;;6159657;23;20217;-52
2024/04/01 10:46:03;;;;;;;1.33;1.23;;;;;;;;;;6180162;23;20188;-50
2024/04/01 10:48:30;;;;;;;1.00;1.00;;;;;;;;;;6213557;23;20188;-53
2024/04/01 10:52:00;;;;;;;1.67;1.42;;;;;;;;;;6213094;23;20197;-50
2024/04/01 10:54:39;;;;;;;1.00;1.00;;;;;;;;;;6180007;23;20699;-50
2024/04/01 10:57:46;;;;;;;1.85;1.73;;;;;;;;;;6180304;23;20158;-50
2024/04/01 11:00:40;;;;;;;1.20;1.10;;;;;;;;;;6205559;23;20256;-54
2024/04/01 11:04:02;;;;;;;1.17;1.13;;;;;;;;;;6212835;23;20245;-54
2024/04/01 11:06:48;;;;;;;2.45;1.25;;;;;;;;;;6213692;23;20180;-50
2024/04/01 11:09:30;;;;;;;1.20;1.10;;;;;;;;;;6213493;23;20181;-50
2024/04/01 11:12:08;;;;;;;1.02;1.02;;;;;;;;;;6213248;23;20216;-50
2024/04/01 11:14:36;;;;;;;1.10;1.00;;;;;;;;;;6212917;23;20189;-50
2024/04/01 11:17:05;;;;;;;0.95;0.85;;;;;;;;;;6213433;23;20177;-50
2024/04/01 11:19:53;;;;;;;1.48;0.85;;;;;;;;;;6213350;23;20181;-51
2024/04/01 11:22:31;;;;;;;2.15;1.23;;;;;;;;;;6213087;23;20765;-50
2024/04/01 11:25:07;;;;;;;1.05;1.05;;;;;;;;;;6213543;23;20239;-50
2024/04/01 11:27:55;;;;;;;2.50;2.30;;;;;;;;;;6213455;23;20629;-50
2024/04/01 11:30:26;;;;;;;4.03;3.70;;;;;;;;;;6213419;23;20158;-54
2024/04/01 11:32:58;;;;;;;3.17;2.88;;;;;;;;;;6214778;23;20173;-50
2024/04/01 11:35:43;;;;;;;3.55;2.00;;;;;;;;;;6215461;23;20158;-50
2024/04/01 11:38:30;;;;;;;1.50;1.40;;;;;;;;;;6215111;23;20212;-52
2024/04/01 11:40:59;;;;;;;1.15;1.05;;;;;;;;;;6215333;23;20529;-50
2024/04/01 11:43:27;;;;;;;0.90;0.90;;;;;;;;;;6214509;23;20180;-51
2024/04/01 11:45:55;;;;;;;1.25;0.93;;;;;;;;;;6214908;23;20177;-55
2024/04/01 11:48:23;;;;;;;1.65;1.45;;;;;;;;;;6214320;23;20198;-50
2024/04/01 11:50:51;;;;;;;0.75;0.75;;;;;;;;;;6214262;23;20530;-52
2024/04/01 11:53:18;;;;;;;0.88;0.88;;;;;;;;;;6215060;23;20682;-50
2024/04/01 11:55:56;;;;;;;0.68;0.68;;;;;;;;;;6215264;23;20224;-51
2024/04/01 11:58:22;;;;;;;0.90;0.90;;;;;;;;;;6215298;23;20160;-50
2024/04/01 12:00:54;;;;;;;0.80;0.80;;;;;;;;;;6214929;23;20200;-51
2024/04/01 12:03:24;;;;;;;0.40;0.40;;;;;;;;;;6214951;23;20186;-50
2024/04/01 12:05:52;;;;;;;0.57;0.57;;;;;;;;;;6214995;23;20240;-51
2024/04/01 12:08:22;;;;;;;0.93;0.93;;;;;;;;;;6215098;23;20197;-50
2024/04/01 12:10:50;;;;;;;0.70;0.70;;;;;;;;;;6214884;23;20221;-52
2024/04/01 12:13:23;;;;;;;1.60;0.80;;;;;;;;;;6213948;23;20201;-53
2024/04/01 12:15:51;;;;;;;0.60;0.60;;;;;;;;;;6215018;23;20502;-51
2024/04/01 12:18:18;;;;;;;0.63;0.63;;;;;;;;;;6214447;23;20170;-50
2024/04/01 12:20:51;;;;;;;0.52;0.52;;;;;;;;;;6214873;23;20221;-53
2024/04/01 12:23:21;;;;;;;0.50;0.50;;;;;;;;;;6214862;23;20596;-54
2024/04/01 12:25:48;;;;;;;0.45;0.45;;;;;;;;;;6214652;23;20522;-53
2024/04/01 12:28:15;;;;;;;0.40;0.38;;;;;;;;;;6214281;23;20525;-52
2024/04/01 12:30:42;;;;;;;0.50;0.50;;;;;;;;;;6214251;23;20237;-54
2024/04/01 12:33:10;;;;;;;0.60;0.60;;;;;;;;;;6214105;23;20184;-50
2024/04/01 12:35:41;;;;;;;0.28;0.28;;;;;;;;;;6214355;23;20174;-50
2024/04/01 12:38:13;;;;;;;0.43;0.40;;;;;;;;;;6214517;23;20158;-51
2024/04/01 12:40:44;;;;;;;0.82;0.60;;;;;;;;;;6214751;23;20198;-50
2024/04/01 12:43:14;;;;;;;0.40;0.40;;;;;;;;;;6213576;23;20256;-51
2024/04/01 12:45:43;;;;;;;0.40;0.40;;;;;;;;;;6214726;23;20592;-54
2024/04/01 12:48:12;;;;;;;0.35;0.35;;;;;;;;;;6214527;23;20498;-50
2024/04/01 12:50:43;;;;;;;0.40;0.40;;;;;;;;;;6214408;23;20205;-49
2024/04/01 12:53:29;;;;;;;0.40;0.40;;;;;;;;;;6214068;23;20158;-52
2024/04/01 12:56:01;;;;;;;0.75;0.60;;;;;;;;;;6214707;23;20241;-52
2024/04/01 12:58:32;;;;;;;0.35;0.35;;;;;;;;;;6214336;23;20154;-50
2024/04/01 13:01:14;;;;;;;0.40;0.40;;;;;;;;;;6214044;23;20227;-51
2024/04/01 13:03:54;;;;;;;0.50;0.50;;;;;;;;;;6214400;23;20240;-51
2024/04/01 13:06:47;;;;;;;0.47;0.47;;;;;;;;;;6214386;23;20162;-51
2024/04/01 13:09:25;;;;;;;0.40;0.40;;;;;;;;;;6214556;23;20197;-50
2024/04/01 13:12:14;;;;;;;0.40;0.40;;;;;;;;;;6214315;23;20194;-52
2024/04/01 13:15:00;;;;;;;0.35;0.35;;;;;;;;;;6213814;23;20188;-50
2024/04/01 13:17:35;;;;;;;0.45;0.45;;;;;;;;;;6214637;23;20158;-49
2024/04/01 13:20:07;;;;;;;0.38;0.38;;;;;;;;;;6214479;23;20162;-49
2024/04/01 13:22:41;;;;;;;0.40;0.40;;;;;;;;;;6213957;23;20263;-53
2024/04/01 13:25:18;;;;;;;0.40;0.40;;;;;;;;;;6214082;23;20169;-50
2024/04/01 13:27:52;;;;;;;0.50;0.50;;;;;;;;;;6214485;23;20190;-51
2024/04/01 13:30:32;;;;;;;0.40;0.40;;;;;;;;;;6214174;23;20182;-51
2024/04/01 13:33:00;;;;;;;0.50;0.50;;;;;;;;;;6214088;23;20162;-50
2024/04/01 13:35:45;;;;;;;0.35;0.35;;;;;;;;;;6213440;23;20655;-50
2024/04/01 13:38:25;;;;;;;0.32;0.32;;;;;;;;;;6214376;23;20242;-52
2024/04/01 13:41:04;;;;;;;0.40;0.40;;;;;;;;;;6214189;23;20244;-50
2024/04/01 13:43:57;;;;;;;0.63;0.63;;;;;;;;;;6213504;23;20192;-50
2024/04/01 13:46:34;;;;;;;0.55;0.55;;;;;;;;;;6214342;23;20625;-51
2024/04/01 13:49:43;;;;;;;0.60;0.60;;;;;;;;;;6214141;23;20188;-54
2024/04/01 13:52:24;;;;;;;0.50;0.50;;;;;;;;;;6213947;23;20197;-50
2024/04/01 13:54:58;;;;;;;0.57;0.57;;;;;;;;;;6214017;23;20241;-50
2024/04/01 13:57:41;;;;;;;2.25;0.90;;;;;;;;;;6214199;23;20509;-50
2024/04/01 14:00:19;;;;;;;0.50;0.50;;;;;;;;;;6214025;23;20245;-51
2024/04/01 14:02:52;;;;;;;0.50;0.50;;;;;;;;;;6214003;23;20231;-50
2024/04/01 14:05:42;;;;;;;1.25;0.40;;;;;;;;;;6213974;23;20189;-50
2024/04/01 14:08:16;;;;;;;0.60;0.60;;;;;;;;;;6214097;23;20158;-50
2024/04/01 14:10:55;;;;;;;0.38;0.38;;;;;;;;;;6213820;23;20658;-50
2024/04/01 14:13:49;;;;;;;0.60;0.60;;;;;;;;;;6213473;23;20185;-50
2024/04/01 14:16:25;;;;;;;0.60;0.60;;;;;;;;;;6213994;23;20526;-51
2024/04/01 14:19:10;;;;;;;0.40;0.40;;;;;;;;;;6213831;23;20158;-52
2024/04/01 14:21:37;;;;;;;1.15;1.15;;;;;;;;;;6213793;23;20201;-49
2024/04/01 14:24:13;;;;;;;0.63;0.60;;;;;;;;;;6213206;23;20170;-50
2024/04/01 14:26:41;;;;;;;0.52;0.52;;;;;;;;;;6213544;23;20237;-50
2024/04/01 14:29:12;;;;;;;0.88;0.70;;;;;;;;;;6213463;23;20256;-49
2024/04/01 14:31:40;;;;;;;0.80;0.80;;;;;;;;;;6213302;23;20193;-49
2024/04/01 14:34:08;;;;;;;0.73;0.73;;;;;;;;;;6212820;23;20185;-49
2024/04/01 14:36:34;;;;;;;0.82;0.82;;;;;;;;;;6213482;23;20174;-49
2024/04/01 14:39:02;;;;;;;0.80;0.80;;;;;;;;;;6213103;23;20253;-51
2024/04/01 14:41:30;;;;;;;0.60;0.60;;;;;;;;;;6213061;23;20257;-51
2024/04/01 14:43:58;;;;;;;0.93;0.90;;;;;;;;;;6212983;23;20177;-51
2024/04/01 14:46:27;;;;;;;0.75;0.75;;;;;;;;;;6213679;23;20173;-51
2024/04/01 14:48:56;;;;;;;0.88;0.88;;;;;;;;;;6213614;23;20559;-50
2024/04/01 14:51:23;;;;;;;1.63;0.90;;;;;;;;;;6212663;23;20716;-50
2024/04/01 14:53:53;;;;;;;0.70;0.70;;;;;;;;;;6213136;23;20189;-50
2024/04/01 14:56:20;;;;;;;0.77;0.60;;;;;;;;;;6213717;23;20583;-51
2024/04/01 14:58:47;;;;;;;0.60;0.60;;;;;;;;;;6213238;23;20189;-50
2024/04/01 15:01:14;;;;;;;0.60;0.60;;;;;;;;;;6213621;23;20190;-55
2024/04/01 15:03:42;;;;;;;2.00;0.85;;;;;;;;;;6212775;23;20180;-50
2024/04/01 15:06:09;;;;;;;0.60;0.60;;;;;;;;;;6212890;23;20256;-50
2024/04/01 15:08:37;;;;;;;0.80;0.80;;;;;;;;;;6213029;23;20174;-52